Impacts TAF Board
For situational awareness. Not to be used for flight planning purposes.
IDs:

KGWO - Greenwood/Leflore Ar, MS, US

Issued at 1357 UTC 23 Jan 2019
Updated at 1745 UTC 23 Jan 2019
Potential Impact None Slight Moderate High
Time1703Z 23/18Z 23/19Z 23/20Z 23/21Z 23/22Z 23/23Z 24/00Z 24/01Z 24/02Z 24/03Z 24/04Z 24/05Z 24/06Z>>
Type OBS PRVL PRVL PRVL PRVL PRVL PRVL PRVL PRVL PRVL PRVL PRVL PRVL PRVL
VIS 10 4 4 4 4 >6 >6 >6 >6 >6 >6 >6 >6 >6
CIG 10 8 8 8 8 15 15 15 15 50 50 50 50 --
Cover OVC BKN BKN BKN BKN OVC OVC OVC OVC BKN BKN BKN BKN SCT
FltCat MVFR IFR IFR IFR IFR MVFR MVFR MVFR MVFR VFR VFR VFR VFR VFR
WX -- RA BR RA BR RA BR RA BR -- -- -- -- -- -- -- -- --
WDir VRB 300 300 300 300 310 310 310 310 310 310 310 310 310
WSpd 3 12 12 12 12 11 11 11 11 8 8 8 8 4
WGst -- -- -- -- -- -- -- -- -- -- -- -- -- --
Raw TAF
KGWO 231357Z 2314/2412 36007KT 2SM -RA BR OVC025
  FM231700 30012KT 4SM RA BR BKN008
  FM232200 31011KT P6SM OVC015
  FM240200 31008KT P6SM BKN050
  FM240600 31004KT P6SM SCT100


Raw METAR
KGWO 231703Z AUTO VRB03KT 10SM BKN010 OVC013 11/09 A2992 RMK AO2 RAE03 CIG 005V012 P0000 T01110094
KGWO 231653Z AUTO VRB05KT 10SM -RA BKN008 OVC012 11/10 A2992 RMK AO2 CIG 004V009 SLP132 P0002 T01110100
KGWO 231615Z AUTO 26003KT 6SM -RA BR BKN005 OVC010 11/11 A2994 RMK AO2 P0001 T01110106
KGWO 231605Z AUTO 00000KT 4SM -RA BR SCT004 BKN010 OVC018 11/11 A2994 RMK AO2 P0000 T01110106
KGWO 231553Z AUTO 27004KT 2SM RA BR FEW003 BKN010 OVC026 11/11 A2994 RMK AO2 SLP138 P0017 T01110106
KGWO 231546Z AUTO 27003KT 1 3/4SM RA BR FEW003 BKN026 OVC055 11/11 A2994 RMK AO2 P0015 T01110106
KGWO 231515Z AUTO 33003KT 1 3/4SM RA BR FEW007 BKN043 OVC060 11/11 A2992 RMK AO2 P0005 T01110106
KGWO 231507Z AUTO 35003KT 2SM RA BR FEW005 BKN041 OVC050 11/11 A2992 RMK AO2 P0004 T01110106
KGWO 231453Z AUTO 36003KT 2 1/2SM RA BR SCT005 BKN011 OVC047 11/11 A2991 RMK AO2 SLP129 P0013 60024 T01110106 50012
KGWO 231444Z AUTO 02004KT 2 1/2SM -RA BR SCT005 BKN031 OVC047 11/10 A2991 RMK AO2 P0011 T01110100
KGWO 231433Z AUTO 00000KT 2SM RA BR FEW005 BKN025 OVC040 11/11 A2991 RMK AO2 P0009 T01110106

METAR Board
Radar Display
Forecast Discussion
For situational awareness. Not to be used for flight planning purposes.